createdAt,value
2017-09-27T00:02:24.996Z,24.40
2017-09-27T04:20:30.934Z,26.95
2017-09-27T04:22:59.427Z,24.87
2017-09-27T04:25:27.626Z,25.30
2017-09-27T04:27:55.846Z,24.35
2017-09-27T04:30:24.073Z,25.23
2017-09-27T04:32:54.500Z,24.67
2017-09-27T04:35:23.499Z,24.67
2017-09-27T04:37:53.480Z,25.02
2017-09-27T04:40:21.671Z,25.20
2017-09-27T04:42:49.864Z,24.40
2017-09-27T04:45:18.047Z,25.60
2017-09-27T04:47:51.352Z,24.48
2017-09-27T04:50:19.663Z,25.45
2017-09-27T04:52:47.868Z,24.77
2017-09-27T04:55:16.084Z,25.52
2017-09-27T04:57:44.315Z,24.48
2017-09-27T05:00:13.692Z,24.50
2017-09-27T05:02:42.703Z,24.67
2017-09-27T05:05:10.990Z,23.98
2017-09-27T05:07:40.002Z,24.58
2017-09-27T05:10:08.677Z,26.25
2017-09-27T05:12:37.645Z,25.37
2017-09-27T05:15:05.831Z,25.40
2017-09-27T05:17:34.845Z,26.60
2017-09-27T05:20:03.066Z,26.20
2017-09-27T05:22:31.282Z,24.50
2017-09-27T05:24:59.531Z,25.15
2017-09-27T05:27:27.743Z,27.58
2017-09-27T05:29:56.042Z,26.20
2017-09-27T05:32:25.509Z,24.55
2017-09-27T05:34:54.590Z,26.92
2017-09-27T05:37:22.782Z,25.65
2017-09-27T05:39:51.874Z,26.10
2017-09-27T05:42:20.863Z,24.65
2017-09-27T05:44:49.073Z,27.05
2017-09-27T05:47:17.300Z,26.25
2017-09-27T05:49:45.939Z,26.77
2017-09-27T05:52:14.181Z,26.60
2017-09-27T05:54:42.445Z,24.87
2017-09-27T05:57:11.436Z,25.65
2017-09-27T05:59:40.503Z,26.10
2017-09-27T06:02:08.815Z,26.83
2017-09-27T06:04:37.071Z,27.15
2017-09-27T06:07:05.380Z,25.10
2017-09-27T06:09:33.650Z,27.00
2017-09-27T06:12:01.867Z,25.12
2017-09-27T06:14:30.094Z,26.52
2017-09-27T06:16:58.294Z,26.42
2017-09-27T06:19:26.556Z,25.70
2017-09-27T06:21:54.813Z,27.23
2017-09-27T06:24:23.123Z,28.67
2017-09-27T06:26:51.351Z,27.58
2017-09-27T06:29:20.319Z,26.65
2017-09-27T06:31:48.515Z,26.30
2017-09-27T06:34:17.482Z,27.98
2017-09-27T06:36:45.694Z,27.15
2017-09-27T06:39:14.779Z,26.67
2017-09-27T06:41:43.808Z,28.75
2017-09-27T06:44:12.039Z,27.30
2017-09-27T06:46:41.006Z,26.77
2017-09-27T06:49:09.286Z,26.77
2017-09-27T06:51:37.878Z,26.25
2017-09-27T06:54:06.079Z,26.95
2017-09-27T06:56:35.047Z,26.23
2017-09-27T06:59:03.267Z,27.00
2017-09-27T07:01:31.442Z,28.30
2017-09-27T07:03:59.771Z,28.90
2017-09-27T07:06:28.029Z,29.35
2017-09-27T07:08:56.221Z,28.50
2017-09-27T07:11:25.187Z,29.37
2017-09-27T07:13:53.427Z,27.00
2017-09-27T07:16:21.632Z,27.70
2017-09-27T07:18:49.868Z,27.92
2017-09-27T07:21:18.100Z,27.13
2017-09-27T07:23:46.309Z,26.85
2017-09-27T07:26:14.729Z,29.87
2017-09-27T07:28:42.931Z,27.92
2017-09-27T07:31:11.130Z,28.30
2017-09-27T07:33:40.117Z,29.20
2017-09-27T07:36:09.131Z,29.40
2017-09-27T07:38:37.398Z,28.65
2017-09-27T07:41:05.628Z,25.70
2017-09-27T07:43:35.107Z,29.00
2017-09-27T07:46:03.346Z,27.33
2017-09-27T07:48:31.622Z,28.80
2017-09-27T07:50:59.842Z,28.77
2017-09-27T07:53:28.043Z,28.27
2017-09-27T07:55:56.255Z,27.27
2017-09-27T07:58:24.470Z,27.17
2017-09-27T08:00:52.686Z,28.25
2017-09-27T08:03:20.935Z,26.87
2017-09-27T08:05:49.208Z,30.95
2017-09-27T08:08:17.715Z,29.52
2017-09-27T08:10:45.952Z,30.75
2017-09-27T08:13:14.143Z,27.98
2017-09-27T08:15:42.360Z,29.08
2017-09-27T08:18:10.603Z,30.30
2017-09-27T08:20:39.654Z,28.38
2017-09-27T08:23:07.898Z,29.05
2017-09-27T08:25:36.152Z,29.52
2017-09-27T08:28:04.466Z,31.12
2017-09-27T08:30:32.659Z,29.98
2017-09-27T08:33:00.916Z,30.42
2017-09-27T08:35:29.122Z,29.75
2017-09-27T08:37:57.382Z,31.45
2017-09-27T08:40:25.640Z,28.80
2017-09-27T08:42:53.871Z,29.05
2017-09-27T08:45:22.848Z,30.20
2017-09-27T08:47:51.052Z,28.98
2017-09-27T08:50:19.254Z,29.67
2017-09-27T08:52:47.472Z,31.08
2017-09-27T08:55:15.687Z,26.35
2017-09-27T08:57:43.876Z,30.80
2017-09-27T09:00:12.067Z,28.52
2017-09-27T09:02:40.262Z,29.75
2017-09-27T09:05:08.460Z,30.70
2017-09-27T09:07:36.691Z,29.37
2017-09-27T09:10:04.943Z,29.15
2017-09-27T09:12:33.154Z,30.92
2017-09-27T09:15:01.388Z,29.15
2017-09-27T09:17:29.582Z,29.40
2017-09-27T09:19:57.796Z,27.40
2017-09-27T09:22:26.775Z,29.60
2017-09-27T09:24:55.756Z,30.20
2017-09-27T09:27:23.956Z,27.48
2017-09-27T09:29:52.189Z,28.55
2017-09-27T09:32:20.392Z,29.15
2017-09-27T09:34:49.363Z,28.40
2017-09-27T09:37:17.632Z,28.65
2017-09-27T09:39:45.844Z,28.00
2017-09-27T09:42:14.805Z,27.42
2017-09-27T09:44:43.052Z,27.40
2017-09-27T09:47:11.596Z,27.75
2017-09-27T09:49:40.565Z,27.02
2017-09-27T09:52:09.613Z,26.58
2017-09-27T09:54:37.819Z,30.33
2017-09-27T09:57:06.032Z,26.30
2017-09-27T09:59:34.294Z,26.58
2017-09-27T10:02:03.286Z,27.75
2017-09-27T10:04:31.553Z,29.02
2017-09-27T10:06:59.711Z,28.30
2017-09-27T10:09:27.931Z,28.12
2017-09-27T10:11:56.123Z,30.17
2017-09-27T10:14:24.327Z,27.55
2017-09-27T10:16:52.611Z,26.00
2017-09-27T10:19:20.822Z,26.85
2017-09-27T10:21:49.046Z,27.02
2017-09-27T10:24:17.326Z,29.48
2017-09-27T10:26:45.524Z,26.90
2017-09-27T10:29:14.503Z,27.00
2017-09-27T10:31:42.710Z,26.35
2017-09-27T10:34:10.926Z,26.80
2017-09-27T10:36:39.169Z,26.87
2017-09-27T10:39:07.410Z,26.12
2017-09-27T10:41:36.559Z,26.12
2017-09-27T10:44:04.796Z,25.50
2017-09-27T10:46:33.062Z,25.50
2017-09-27T10:49:02.152Z,25.37
2017-09-27T10:51:31.294Z,27.48
2017-09-27T10:53:59.569Z,24.63
2017-09-27T10:56:27.801Z,25.90
2017-09-27T10:58:57.143Z,26.65
2017-09-27T11:01:25.423Z,25.35
2017-09-27T11:03:53.689Z,26.87
2017-09-27T11:06:21.965Z,24.55
2017-09-27T11:08:50.164Z,24.45
2017-09-27T11:11:18.376Z,26.52
2017-09-27T11:13:46.567Z,24.25
2017-09-27T11:16:14.811Z,25.15
2017-09-27T11:18:43.810Z,25.48
2017-09-27T11:21:12.083Z,25.02
2017-09-27T11:23:41.040Z,27.48
2017-09-27T11:26:09.242Z,25.95
2017-09-27T11:28:38.220Z,26.00
2017-09-27T11:31:06.439Z,26.55
2017-09-27T11:33:34.626Z,24.55
2017-09-27T11:36:02.935Z,24.00
2017-09-27T11:38:31.222Z,24.95
2017-09-27T11:40:59.828Z,23.65
2017-09-27T11:43:28.798Z,24.35
2017-09-27T11:45:57.019Z,23.77
2017-09-27T11:48:25.227Z,22.40
2017-09-27T11:50:53.472Z,24.67
2017-09-27T11:53:21.688Z,23.23
2017-09-27T11:55:49.920Z,24.00
2017-09-27T11:58:19.223Z,24.20
2017-09-27T12:00:47.483Z,24.83
2017-09-27T12:03:16.139Z,25.05
2017-09-27T12:05:44.351Z,24.45
2017-09-27T12:08:12.704Z,23.92
2017-09-27T12:10:42.063Z,23.73
2017-09-27T12:13:10.288Z,23.62
2017-09-27T12:15:38.479Z,23.60
2017-09-27T12:18:06.673Z,22.37
2017-09-27T12:20:34.893Z,22.58
2017-09-27T12:23:03.162Z,21.90
2017-09-27T12:25:31.571Z,23.15
2017-09-27T12:27:59.845Z,22.52
2017-09-27T12:30:28.139Z,22.37
2017-09-27T12:32:56.346Z,21.25
2017-09-27T12:35:24.631Z,21.20
2017-09-27T12:37:52.885Z,22.50
2017-09-27T12:40:21.192Z,21.25
2017-09-27T12:42:50.506Z,21.62
2017-09-27T12:45:19.491Z,21.27
2017-09-27T12:47:48.451Z,22.80
2017-09-27T12:50:16.652Z,23.02
2017-09-27T12:52:45.636Z,21.48
2017-09-27T12:55:14.432Z,22.13
2017-09-27T12:57:43.405Z,22.90
2017-09-27T13:00:11.612Z,21.73
2017-09-27T13:02:40.587Z,20.67
2017-09-27T13:05:09.558Z,20.75
2017-09-27T13:07:37.770Z,21.30
2017-09-27T13:10:06.720Z,19.87
2017-09-27T13:12:34.929Z,21.87
2017-09-27T13:15:03.904Z,21.02
2017-09-27T13:17:32.094Z,20.30
2017-09-27T13:20:01.051Z,20.65
2017-09-27T13:22:29.342Z,21.10
2017-09-27T13:24:57.539Z,21.98
2017-09-27T13:27:25.776Z,21.87
2017-09-27T13:29:53.956Z,22.15
2017-09-27T13:32:23.154Z,21.02
2017-09-27T13:34:51.371Z,20.70
2017-09-27T13:37:20.374Z,20.62
2017-09-27T13:39:48.647Z,21.40
2017-09-27T13:42:17.343Z,21.15
2017-09-27T13:44:45.560Z,21.48
2017-09-27T13:47:13.793Z,22.52
2017-09-27T13:49:42.026Z,20.75
2017-09-27T13:52:11.002Z,21.85
2017-09-27T13:54:39.199Z,21.35
2017-09-27T13:57:07.411Z,22.10
2017-09-27T13:59:35.648Z,21.87
2017-09-27T14:02:03.878Z,22.05
2017-09-27T14:04:32.102Z,21.23
2017-09-27T14:07:00.292Z,21.05
2017-09-27T14:09:28.615Z,21.27
2017-09-27T14:11:56.871Z,20.02
2017-09-27T14:14:25.112Z,20.85
2017-09-27T14:16:53.343Z,19.67
2017-09-27T14:19:21.613Z,20.95
2017-09-27T14:21:50.228Z,21.23
2017-09-27T14:24:18.991Z,19.33
2017-09-27T14:26:48.152Z,21.08
2017-09-27T14:29:16.665Z,20.85
2017-09-27T14:31:44.858Z,20.60
2017-09-27T14:34:13.095Z,20.75
2017-09-27T14:36:41.292Z,21.70
2017-09-27T14:39:09.588Z,20.45
2017-09-27T14:41:37.862Z,21.33
2017-09-27T14:44:06.185Z,21.00
2017-09-27T14:46:34.506Z,18.77
2017-09-27T14:49:02.752Z,20.15
2017-09-27T14:51:31.000Z,20.15
2017-09-27T14:53:59.219Z,21.52
2017-09-27T14:56:28.276Z,22.17
2017-09-27T14:58:56.662Z,20.45
2017-09-27T15:01:25.710Z,19.80
2017-09-27T15:03:54.015Z,20.98
2017-09-27T15:06:22.468Z,20.95
2017-09-27T15:08:51.459Z,20.95
2017-09-27T15:11:19.654Z,20.37
2017-09-27T15:13:47.917Z,19.50
2017-09-27T15:16:16.301Z,18.92
2017-09-27T15:18:44.679Z,20.20
2017-09-27T15:21:12.931Z,22.00
2017-09-27T15:23:41.168Z,20.30
2017-09-27T15:26:09.827Z,21.33
2017-09-27T15:28:38.161Z,23.40
2017-09-27T15:31:06.458Z,21.80
2017-09-27T15:33:34.661Z,23.08
2017-09-27T15:36:03.752Z,21.35
2017-09-27T15:38:32.888Z,22.60
2017-09-27T15:41:04.765Z,20.27
2017-09-27T15:43:33.037Z,21.35
2017-09-27T15:46:02.006Z,21.02
2017-09-27T15:48:30.356Z,20.55
2017-09-27T15:50:58.580Z,21.05
2017-09-27T15:53:28.152Z,21.77
2017-09-27T15:55:56.368Z,20.62
2017-09-27T15:58:24.801Z,21.45
2017-09-27T16:00:52.999Z,21.67
2017-09-27T16:03:21.971Z,20.33
2017-09-27T16:05:50.239Z,22.10
2017-09-27T16:08:18.461Z,20.77
2017-09-27T16:10:49.890Z,21.52
2017-09-27T16:13:19.072Z,23.42
2017-09-27T16:15:47.337Z,23.87
2017-09-27T16:18:15.585Z,23.77
2017-09-27T16:20:43.802Z,21.67
2017-09-27T16:23:12.194Z,22.23
2017-09-27T16:25:41.177Z,23.27
2017-09-27T16:28:10.207Z,23.95
2017-09-27T16:30:38.463Z,22.05
2017-09-27T16:33:06.724Z,25.33
2017-09-27T16:35:35.715Z,26.20
2017-09-27T16:38:04.826Z,24.87
2017-09-27T16:40:33.224Z,24.83
2017-09-27T16:43:01.415Z,25.30
2017-09-27T16:45:29.616Z,25.50
2017-09-27T16:47:57.835Z,25.83
2017-09-27T16:50:26.212Z,25.67
2017-09-27T16:52:54.441Z,27.25
2017-09-27T16:55:22.736Z,25.15
2017-09-27T16:57:51.742Z,26.83
2017-09-27T17:00:20.763Z,27.62
2017-09-27T17:02:49.085Z,25.77
2017-09-27T17:05:17.363Z,27.08
2017-09-27T17:07:45.584Z,24.65
2017-09-27T17:10:13.812Z,24.65
2017-09-27T17:12:42.036Z,27.00
2017-09-27T17:15:10.239Z,29.45
2017-09-27T17:17:38.822Z,26.27
2017-09-27T17:20:07.044Z,26.12
2017-09-27T17:22:35.263Z,27.33
2017-09-27T17:25:03.493Z,27.77
2017-09-27T17:27:32.626Z,27.08
2017-09-27T17:30:00.873Z,25.27
2017-09-27T17:32:29.174Z,25.80
2017-09-27T17:34:57.412Z,27.42
2017-09-27T17:37:25.655Z,28.48
2017-09-27T17:39:53.892Z,25.17
2017-09-27T17:42:22.101Z,27.00
2017-09-27T17:44:50.673Z,27.15
2017-09-27T17:47:19.052Z,26.75
2017-09-27T17:49:47.298Z,28.52
2017-09-27T17:52:15.538Z,26.95
2017-09-27T17:54:44.548Z,26.60
2017-09-27T17:57:12.795Z,27.45
2017-09-27T17:59:41.764Z,28.25
2017-09-27T18:02:10.009Z,27.60
2017-09-27T18:04:43.672Z,27.08
2017-09-27T18:07:21.339Z,26.87
2017-09-27T18:09:55.147Z,29.80
2017-09-27T18:12:28.815Z,27.50
2017-09-27T18:15:01.652Z,29.20
2017-09-27T18:17:31.551Z,28.83
2017-09-27T18:19:59.775Z,28.12
2017-09-27T18:22:28.880Z,27.17
2017-09-27T18:24:57.100Z,27.05
2017-09-27T18:27:26.188Z,26.60
2017-09-27T18:29:54.427Z,27.20
2017-09-27T18:32:22.731Z,26.90
2017-09-27T18:34:51.774Z,27.80
2017-09-27T18:37:19.980Z,28.52
2017-09-27T18:39:48.236Z,28.55
2017-09-27T18:42:16.535Z,29.67
2017-09-27T18:44:44.731Z,29.02
2017-09-27T18:47:12.962Z,27.58
2017-09-27T18:49:41.203Z,28.42
2017-09-27T18:52:09.449Z,27.02
2017-09-27T18:54:37.667Z,29.20
2017-09-27T18:57:05.931Z,27.83
2017-09-27T18:59:34.179Z,29.42
2017-09-27T19:02:02.452Z,28.77
2017-09-27T19:04:31.444Z,28.08
2017-09-27T19:06:59.696Z,29.05
2017-09-27T19:09:28.969Z,28.77
2017-09-27T19:11:57.301Z,30.67
2017-09-27T19:14:26.349Z,26.87
2017-09-27T19:16:54.612Z,28.83
2017-09-27T19:19:23.186Z,29.45
2017-09-27T19:21:51.435Z,29.40
2017-09-27T19:24:20.419Z,29.12
2017-09-27T19:26:49.470Z,29.37
2017-09-27T19:29:17.796Z,27.77
2017-09-27T19:31:46.817Z,29.90
2017-09-27T19:34:15.459Z,29.73
2017-09-27T19:36:43.740Z,29.70
2017-09-27T19:39:12.732Z,29.10
2017-09-27T19:41:41.738Z,29.15
2017-09-27T19:44:10.005Z,30.73
2017-09-27T19:46:39.411Z,30.40
2017-09-27T19:49:07.842Z,28.58
2017-09-27T19:51:38.286Z,30.50
2017-09-27T19:54:06.531Z,29.02
2017-09-27T19:56:34.939Z,28.60
2017-09-27T19:59:03.202Z,30.77
2017-09-27T20:01:31.477Z,29.83
2017-09-27T20:04:01.000Z,30.35
2017-09-27T20:06:29.361Z,30.08
2017-09-27T20:08:57.785Z,29.60
2017-09-27T20:11:28.597Z,30.12
2017-09-27T20:13:56.920Z,28.50
2017-09-27T20:16:25.150Z,29.83
2017-09-27T20:18:53.524Z,31.37
2017-09-27T20:21:21.774Z,30.80
2017-09-27T20:23:50.052Z,28.23
2017-09-27T20:26:18.279Z,31.60
2017-09-27T20:28:46.504Z,30.95
2017-09-27T20:31:14.846Z,30.62
2017-09-27T20:33:43.093Z,29.77
2017-09-27T20:36:11.470Z,29.45
2017-09-27T20:38:40.052Z,29.23
2017-09-27T20:41:09.080Z,30.88
2017-09-27T20:43:37.671Z,31.52
2017-09-27T20:46:05.893Z,30.45
2017-09-27T20:48:34.905Z,27.02
2017-09-27T20:51:03.139Z,28.50
2017-09-27T20:53:31.346Z,29.02
2017-09-27T20:56:00.314Z,27.80
2017-09-27T20:58:28.534Z,27.90
2017-09-27T21:00:57.243Z,29.35
2017-09-27T21:06:00.297Z,27.77
2017-09-27T21:08:29.402Z,26.45
2017-09-27T21:10:57.655Z,28.05
2017-09-27T21:13:25.879Z,26.45
2017-09-27T21:15:54.106Z,27.67
2017-09-27T21:18:23.084Z,26.80
2017-09-27T21:20:51.319Z,25.48
2017-09-27T21:23:19.576Z,28.33
2017-09-27T21:25:47.859Z,25.90
2017-09-27T21:28:16.193Z,26.75
2017-09-27T21:30:44.406Z,25.20
2017-09-27T21:33:12.631Z,26.23
2017-09-27T21:35:40.848Z,26.60
2017-09-27T21:38:09.118Z,24.30
2017-09-27T21:40:37.398Z,25.65
2017-09-27T21:43:05.657Z,25.58
2017-09-27T21:45:34.777Z,25.27
2017-09-27T21:48:03.482Z,23.23
2017-09-27T21:50:32.749Z,25.55
2017-09-27T21:53:01.039Z,25.30
2017-09-27T21:55:29.492Z,24.58
2017-09-27T21:57:59.604Z,25.58
2017-09-27T22:00:29.111Z,25.58
2017-09-27T22:02:57.470Z,24.98
2017-09-27T22:05:25.838Z,25.27
2017-09-27T22:07:54.271Z,24.90
2017-09-27T22:10:22.573Z,25.17
2017-09-27T22:12:51.263Z,24.85
2017-09-27T22:15:19.606Z,25.52
2017-09-27T22:17:47.917Z,24.08
2017-09-27T22:20:16.197Z,24.40
2017-09-27T22:22:44.521Z,24.67
2017-09-27T22:25:12.821Z,24.30
2017-09-27T22:27:46.678Z,24.25
2017-09-27T22:30:15.244Z,22.77
2017-09-27T22:32:43.556Z,23.95
2017-09-27T22:35:11.829Z,23.62
2017-09-27T22:37:40.117Z,22.23
2017-09-27T22:40:08.447Z,23.10
2017-09-27T22:42:36.744Z,22.37
2017-09-27T22:45:05.075Z,22.87
2017-09-27T22:47:34.995Z,21.73
2017-09-27T22:50:04.236Z,22.92
2017-09-27T22:52:32.843Z,22.50
2017-09-27T22:55:02.009Z,21.52
2017-09-27T22:57:30.682Z,21.98
2017-09-27T22:59:59.731Z,21.20
2017-09-27T23:02:28.093Z,22.80
2017-09-27T23:08:06.933Z,21.25
2017-09-27T23:10:36.646Z,19.92
2017-09-27T23:26:43.360Z,20.55
2017-09-27T23:29:12.021Z,21.50
2017-09-27T23:31:41.158Z,21.12
2017-09-27T23:34:09.501Z,21.20
2017-09-27T23:36:40.613Z,20.77
2017-09-27T23:39:08.954Z,20.00
2017-09-27T23:41:37.300Z,20.02
2017-09-27T23:44:06.352Z,19.80
2017-09-27T23:46:36.006Z,19.17
2017-09-27T23:49:04.307Z,20.42
2017-09-27T23:51:32.648Z,20.45
2017-09-27T23:54:01.713Z,20.85
2017-09-27T23:59:20.523Z,19.98
